TFM - Tactical Decision Aid
ID: Runway Winds: CIG/VIS Threshold:

KCSG - Columbus Arpt, GA, US

Updated at: 0716 UTC 22 Oct 2021
Latest TAF at: 0541 UTC 22 Oct 2021

TAF Board

Time<<22/20Z 22/21Z 22/22Z 22/23Z 23/00Z 23/01Z 23/02Z 23/03Z 23/04Z 23/05Z 23/06Z 23/07Z 23/08Z>>
Type PRVL PRVL PRVL PRVL PRVL PRVL PRVL PRVL PRVL PRVL
VIS >6 >6 >6 >6 >6 >6 >6 >6 >6 >6
CIG -- -- -- -- -- -- -- -- -- --
Cover FEW FEW FEW FEW FEW FEW FEW FEW FEW FEW
FltCat VFR VFR VFR VFR VFR VFR VFR VFR VFR VFR
WX -- -- -- -- -- -- -- -- -- --
WDir 290 290 290 290 290 290 290 290 290 290
WSpd 8 8 8 8 8 8 8 8 8 8
WGst -- -- -- -- -- -- -- -- -- --

TDA Impact Legend

  None Marginal Slight Moderate High
Visibility (sm) >5 3≤X≤5 2≤X<3 0.5≤X<2 <0.5
Ceiling (100 ft) >30 10≤X≤30 6≤X<10 2≤X<6 <2
Wind Speed (kt) <15 15≤X<25 25≤X<30 ≥30
Wind Gust (kt) <15 15≤X<25 25≤X<35 ≥35
Weather No Wx Reported VCTS -TS,-FZRA TS,FZRA +TS,+FZRA
TAF
KCSG 220541Z 2206/2306 21004KT P6SM VCSH SCT040 BKN100
  FM220800 24004KT P6SM VCSH SCT008 BKN020
  TEMPO 2208/2211 VRB10G20KT 4SM -SHRA BR BKN008
  FM221200 29005KT P6SM SCT020 BKN035
  FM221400 30005KT P6SM SCT025 SCT050
  FM221700 29008KT P6SM FEW250


Radar Display
Forecast Discussion